Time;durP1;ratioP1;P1;durP2;ratioP2;P2;SDS_P1;SDS_P2;PMS_P1;PMS_P2;Temp;Humidity;BMP_temperature;BMP_pressure;BME280_temperature;BME280_humidity;BME280_pressure;Samples;Min_cycle;Max_cycle;Signal;HPM_P1;HPM_P2
2023/05/06 00:00:39;;;;;;;2.00;1.40;;;16.90;80.40;17.10;96514.00;;;;4999951;28;20225;-80
2023/05/06 00:03:09;;;;;;;1.57;1.40;;;16.90;80.50;17.00;96518.00;;;;5017262;28;20396;-80
2023/05/06 00:05:37;;;;;;;2.10;1.43;;;16.80;80.40;17.00;96524.00;;;;5012348;28;20194;-80
2023/05/06 00:08:05;;;;;;;2.33;1.83;;;16.80;80.40;17.00;96510.00;;;;5018201;28;20195;-80
2023/05/06 00:10:32;;;;;;;1.67;1.57;;;16.80;80.40;17.00;96512.00;;;;5018165;28;20198;-80
2023/05/06 00:13:00;;;;;;;1.67;1.40;;;16.80;80.60;17.00;96505.00;;;;5017933;28;20779;-80
2023/05/06 00:15:27;;;;;;;1.60;1.50;;;16.80;80.70;17.00;96513.00;;;;5017018;28;20208;-80
2023/05/06 00:17:56;;;;;;;1.73;1.63;;;16.80;80.80;17.00;96497.00;;;;5000602;28;20198;-79
2023/05/06 00:20:25;;;;;;;1.93;1.83;;;16.80;81.00;17.00;96509.00;;;;5016326;28;20200;-80
2023/05/06 00:22:52;;;;;;;2.63;1.37;;;16.80;81.10;17.00;96510.00;;;;4999465;28;20707;-80
2023/05/06 00:25:19;;;;;;;1.90;1.70;;;16.80;80.90;17.00;96501.00;;;;5016185;28;20225;-80
2023/05/06 00:27:46;;;;;;;1.80;1.40;;;16.80;80.80;17.00;96494.00;;;;5014066;28;20258;-80
2023/05/06 00:30:15;;;;;;;1.70;1.57;;;16.80;80.70;16.90;96496.00;;;;5017541;28;20199;-80
2023/05/06 00:32:42;;;;;;;1.57;1.47;;;16.70;80.50;16.90;96502.00;;;;5022091;28;20655;-80
2023/05/06 00:35:09;;;;;;;2.47;1.47;;;16.70;80.60;16.90;96506.00;;;;5018655;28;20633;-80
2023/05/06 00:37:38;;;;;;;1.60;1.50;;;16.70;80.90;16.90;96507.00;;;;5017906;28;20194;-80
2023/05/06 00:40:08;;;;;;;2.43;1.40;;;16.70;80.90;16.90;96499.00;;;;4998478;28;20281;-80
2023/05/06 00:42:35;;;;;;;1.43;1.33;;;16.70;80.90;16.90;96493.00;;;;4998798;28;20228;-79
2023/05/06 00:45:03;;;;;;;1.77;1.63;;;16.70;81.10;16.90;96490.00;;;;4998327;28;20232;-80
2023/05/06 00:47:31;;;;;;;2.47;1.70;;;16.70;81.20;16.90;96483.00;;;;5015630;28;20265;-80
2023/05/06 00:49:58;;;;;;;2.67;1.70;;;16.70;81.10;17.00;96484.00;;;;4996321;28;20198;-79
2023/05/06 00:52:26;;;;;;;1.90;1.80;;;16.70;81.20;17.00;96484.00;;;;4988486;28;20202;-79
2023/05/06 00:54:54;;;;;;;2.00;1.80;;;16.70;81.40;17.00;96476.00;;;;4978255;28;20194;-80
2023/05/06 00:57:22;;;;;;;1.57;1.47;;;16.70;81.30;17.00;96480.00;;;;5014217;28;20751;-79
2023/05/06 00:59:49;;;;;;;4.53;2.33;;;16.70;81.40;17.00;96476.00;;;;5018024;28;20201;-80
2023/05/06 01:02:16;;;;;;;1.90;1.73;;;16.70;81.50;17.00;96470.00;;;;5017430;28;20312;-79
2023/05/06 01:04:44;;;;;;;2.93;2.20;;;16.70;81.40;17.00;96476.00;;;;5019415;28;20700;-80
2023/05/06 01:07:40;;;;;;;1.80;1.70;;;16.70;81.20;17.00;96474.00;;;;5033945;28;20210;-80
2023/05/06 01:10:21;;;;;;;1.80;1.70;;;16.70;81.10;17.00;96464.00;;;;5031554;28;20623;-80
2023/05/06 01:12:58;;;;;;;2.40;2.20;;;16.70;81.20;17.00;96466.00;;;;5013207;28;20301;-80
2023/05/06 01:15:34;;;;;;;1.83;1.73;;;16.70;81.30;17.00;96460.00;;;;5014823;28;20284;-80
2023/05/06 01:18:10;;;;;;;1.97;1.87;;;16.80;81.60;17.00;96460.00;;;;4994958;28;20199;-80
2023/05/06 01:20:39;;;;;;;1.90;1.80;;;16.70;81.50;17.00;96460.00;;;;5016201;28;20299;-80
2023/05/06 01:23:12;;;;;;;3.77;2.30;;;16.70;81.50;17.00;96473.00;;;;5001928;28;20758;-80
2023/05/06 01:25:41;;;;;;;3.30;2.00;;;16.70;81.70;17.00;96467.00;;;;5017013;28;20201;-80
2023/05/06 01:28:11;;;;;;;2.57;2.37;;;16.70;81.50;17.00;96469.00;;;;5018998;28;20198;-80
2023/05/06 01:30:49;;;;;;;2.33;2.13;;;16.70;81.50;17.00;96466.00;;;;5017639;28;20257;-80
2023/05/06 01:33:29;;;;;;;2.10;2.00;;;16.70;81.40;17.00;96469.00;;;;5018491;28;20300;-80
2023/05/06 01:36:13;;;;;;;2.20;2.07;;;16.70;81.40;17.00;96469.00;;;;5018860;28;20286;-80
2023/05/06 01:39:03;;;;;;;2.37;2.17;;;16.70;81.50;17.00;96461.00;;;;5017289;28;20206;-80
2023/05/06 01:41:34;;;;;;;2.37;2.20;;;16.70;81.30;17.00;96469.00;;;;5000601;28;20218;-80
2023/05/06 01:44:04;;;;;;;2.20;2.00;;;16.70;81.10;17.00;96462.00;;;;5018245;28;20351;-80
2023/05/06 01:46:33;;;;;;;2.50;2.30;;;16.70;81.10;16.90;96463.00;;;;5025426;28;20202;-80
2023/05/06 01:49:05;;;;;;;2.20;2.03;;;16.70;81.10;16.90;96472.00;;;;5021208;28;20295;-80
2023/05/06 01:51:33;;;;;;;2.10;1.90;;;16.70;81.20;16.90;96464.00;;;;5000572;28;20209;-80
2023/05/06 01:54:02;;;;;;;2.70;1.97;;;16.70;81.10;16.90;96471.00;;;;5017695;28;20224;-80
2023/05/06 01:56:30;;;;;;;2.40;2.20;;;16.70;81.10;16.90;96478.00;;;;5008471;28;20198;-80
2023/05/06 01:58:58;;;;;;;2.10;2.00;;;16.70;81.10;16.90;96473.00;;;;5025752;28;20189;-80
2023/05/06 02:01:25;;;;;;;2.20;2.00;;;16.70;81.30;16.90;96466.00;;;;5018741;28;20703;-80
2023/05/06 02:03:52;;;;;;;2.43;2.23;;;16.70;81.20;17.00;96463.00;;;;5025211;28;20209;-80
2023/05/06 02:06:20;;;;;;;2.60;2.40;;;16.70;81.20;17.00;96469.00;;;;5003603;28;20190;-80
2023/05/06 02:08:47;;;;;;;3.10;2.10;;;16.70;81.10;16.90;96465.00;;;;5019736;28;20730;-80
2023/05/06 02:11:16;;;;;;;2.30;2.10;;;16.70;81.00;16.90;96460.00;;;;4982643;28;20210;-80
2023/05/06 02:13:43;;;;;;;2.83;2.33;;;16.70;81.00;16.90;96459.00;;;;5000728;28;20695;-81
2023/05/06 02:16:11;;;;;;;3.57;2.40;;;16.70;80.90;16.90;96459.00;;;;5017716;28;20257;-80
2023/05/06 02:18:38;;;;;;;2.50;2.30;;;16.70;81.00;16.90;96456.00;;;;5024323;28;20741;-79
2023/05/06 02:21:05;;;;;;;2.50;2.30;;;16.70;80.90;16.90;96460.00;;;;5003688;28;20281;-80
2023/05/06 02:23:33;;;;;;;2.63;2.43;;;16.60;80.80;16.90;96460.00;;;;5010332;28;20240;-80
2023/05/06 02:26:00;;;;;;;2.77;2.57;;;16.60;80.90;16.90;96456.00;;;;4999503;28;20285;-80
2023/05/06 02:28:28;;;;;;;2.67;2.47;;;16.60;81.10;16.90;96454.00;;;;5018683;28;20259;-80
2023/05/06 02:30:58;;;;;;;2.90;2.70;;;16.60;81.30;16.90;96457.00;;;;5022661;28;20253;-80
2023/05/06 02:33:25;;;;;;;2.50;2.30;;;16.60;81.30;16.90;96463.00;;;;5023226;28;20851;-80
2023/05/06 02:35:52;;;;;;;2.67;2.47;;;16.70;81.60;16.90;96461.00;;;;5008340;28;20712;-80
2023/05/06 02:38:21;;;;;;;2.60;2.40;;;16.70;81.70;16.90;96460.00;;;;5022560;28;20194;-80
2023/05/06 02:40:49;;;;;;;2.73;2.53;;;16.70;81.80;16.90;96450.00;;;;5023470;28;20277;-80
2023/05/06 02:43:16;;;;;;;3.70;2.80;;;16.70;81.80;17.00;96451.00;;;;5025060;28;20249;-80
2023/05/06 02:45:45;;;;;;;3.00;2.77;;;16.70;81.80;17.00;96454.00;;;;5026238;28;20222;-80
2023/05/06 02:48:12;;;;;;;2.73;2.53;;;16.70;81.90;17.00;96460.00;;;;5021065;28;20281;-80
2023/05/06 02:50:40;;;;;;;2.80;2.60;;;16.70;82.00;17.00;96464.00;;;;5010585;28;20201;-80
2023/05/06 02:53:07;;;;;;;3.00;2.70;;;16.70;82.10;17.00;96457.00;;;;5039563;28;20312;-80
2023/05/06 02:55:36;;;;;;;2.70;2.20;;;16.70;82.10;17.10;96472.00;;;;5037798;28;20194;-80
2023/05/06 02:58:04;;;;;;;2.67;2.47;;;16.80;82.20;17.10;96466.00;;;;5020903;28;20194;-81
2023/05/06 03:00:31;;;;;;;2.70;2.53;;;16.80;82.10;17.10;96460.00;;;;5035930;28;20229;-80
2023/05/06 03:03:01;;;;;;;2.80;2.60;;;16.80;82.00;17.10;96457.00;;;;5021692;28;20221;-80
2023/05/06 03:05:29;;;;;;;2.77;2.57;;;16.80;82.10;17.10;96451.00;;;;5022658;28;20198;-80
2023/05/06 03:07:58;;;;;;;3.20;2.93;;;16.80;82.00;17.10;96448.00;;;;5003170;28;20232;-80
2023/05/06 03:10:26;;;;;;;3.23;2.90;;;16.80;82.00;17.10;96456.00;;;;5001656;28;20560;-80
2023/05/06 03:12:54;;;;;;;2.97;2.77;;;16.90;81.90;17.10;96455.00;;;;5003321;28;20224;-80
2023/05/06 03:15:22;;;;;;;2.97;2.73;;;16.90;81.80;17.10;96450.00;;;;5017539;28;20233;-80
2023/05/06 03:17:49;;;;;;;2.80;2.60;;;16.90;81.80;17.10;96448.00;;;;5001759;28;20233;-80
2023/05/06 03:20:18;;;;;;;3.17;2.87;;;16.90;81.90;17.20;96449.00;;;;5016164;28;20226;-80
2023/05/06 03:22:45;;;;;;;3.00;2.80;;;16.90;81.80;17.20;96444.00;;;;5018895;28;20249;-80
2023/05/06 03:25:13;;;;;;;2.97;2.77;;;16.90;81.80;17.20;96449.00;;;;5003507;28;20659;-80
2023/05/06 03:27:41;;;;;;;2.93;2.67;;;16.90;81.90;17.20;96448.00;;;;5000633;28;20571;-80
2023/05/06 03:30:11;;;;;;;4.47;2.73;;;16.90;82.00;17.20;96454.00;;;;5023524;28;20285;-80
2023/05/06 03:32:38;;;;;;;3.17;2.97;;;16.90;81.90;17.20;96449.00;;;;4995539;28;20204;-80
2023/05/06 03:35:07;;;;;;;3.57;2.60;;;16.90;82.00;17.20;96442.00;;;;5008381;28;20616;-80
2023/05/06 03:37:37;;;;;;;4.27;3.00;;;16.90;82.00;17.20;96452.00;;;;5016530;28;20197;-80
2023/05/06 03:40:05;;;;;;;3.23;3.03;;;16.90;82.10;17.20;96449.00;;;;5020597;28;20226;-81
2023/05/06 03:42:32;;;;;;;2.90;2.70;;;17.00;82.30;17.20;96443.00;;;;5026556;28;20221;-80
2023/05/06 03:45:01;;;;;;;3.07;2.87;;;17.00;82.30;17.30;96446.00;;;;5019447;28;20194;-80
2023/05/06 03:47:29;;;;;;;3.37;3.17;;;17.00;82.70;17.20;96450.00;;;;5018857;28;20206;-80
2023/05/06 03:49:56;;;;;;;3.67;3.43;;;17.00;82.10;17.30;96447.00;;;;5018713;28;20289;-80
2023/05/06 03:52:24;;;;;;;3.33;3.03;;;17.00;82.00;17.30;96450.00;;;;5019198;28;20641;-80
2023/05/06 03:54:54;;;;;;;2.80;2.60;;;17.00;81.90;17.30;96455.00;;;;5020377;28;20221;-80
2023/05/06 03:57:21;;;;;;;3.40;3.10;;;17.00;81.70;17.20;96444.00;;;;5021131;28;20555;-81
2023/05/06 03:59:48;;;;;;;3.60;2.90;;;17.00;81.50;17.20;96447.00;;;;5021478;28;20289;-80
2023/05/06 04:02:16;;;;;;;3.03;2.83;;;17.00;81.50;17.20;96441.00;;;;5018717;28;20256;-81
2023/05/06 04:04:44;;;;;;;3.10;2.90;;;17.00;81.60;17.20;96445.00;;;;5003399;28;20218;-80
2023/05/06 04:07:11;;;;;;;3.50;3.20;;;17.00;81.70;17.20;96450.00;;;;5015760;28;20548;-80
2023/05/06 04:09:39;;;;;;;3.70;3.40;;;17.00;81.60;17.20;96455.00;;;;5000437;28;20204;-80
2023/05/06 04:12:08;;;;;;;3.37;3.17;;;17.00;81.60;17.30;96451.00;;;;5020291;28;20198;-80
2023/05/06 04:14:36;;;;;;;3.20;3.00;;;17.00;81.60;17.20;96454.00;;;;5018333;28;20257;-79
2023/05/06 04:17:03;;;;;;;4.30;3.23;;;17.00;81.60;17.20;96452.00;;;;5018590;28;20389;-80
2023/05/06 04:19:31;;;;;;;3.60;3.37;;;17.00;81.60;17.20;96451.00;;;;5019169;28;20230;-80
2023/05/06 04:21:58;;;;;;;3.27;3.07;;;17.00;81.40;17.20;96458.00;;;;5015896;28;20226;-80
2023/05/06 04:24:27;;;;;;;3.80;3.50;;;17.00;81.40;17.20;96455.00;;;;5017268;28;20214;-80
2023/05/06 04:26:54;;;;;;;3.50;3.20;;;16.90;81.40;17.20;96456.00;;;;4993115;28;20195;-80
2023/05/06 04:29:24;;;;;;;3.33;3.13;;;16.90;81.40;17.20;96455.00;;;;5017341;28;20247;-80
2023/05/06 04:31:52;;;;;;;3.37;3.07;;;16.90;81.50;17.20;96465.00;;;;5020064;28;20230;-80
2023/05/06 04:34:19;;;;;;;3.30;3.10;;;16.90;81.50;17.20;96472.00;;;;5003371;28;20236;-80
2023/05/06 04:36:48;;;;;;;3.20;3.00;;;16.90;81.50;17.10;96469.00;;;;4997723;28;20205;-80
2023/05/06 04:39:16;;;;;;;3.87;3.50;;;16.90;81.50;17.10;96472.00;;;;4999453;28;20198;-80
2023/05/06 04:41:45;;;;;;;3.57;3.33;;;16.90;81.30;17.10;96474.00;;;;4983628;28;20226;-81
2023/05/06 04:44:13;;;;;;;3.87;3.37;;;16.90;81.10;17.10;96479.00;;;;5008635;28;20721;-80
2023/05/06 04:46:42;;;;;;;4.03;3.73;;;16.90;81.10;17.10;96479.00;;;;5018798;28;20655;-80
2023/05/06 04:49:09;;;;;;;3.60;3.30;;;16.90;81.40;17.10;96489.00;;;;5016184;28;20232;-80
2023/05/06 04:51:37;;;;;;;3.73;3.43;;;16.80;81.50;17.10;96484.00;;;;5005897;28;20773;-80
2023/05/06 04:54:04;;;;;;;3.77;3.47;;;16.80;81.50;17.00;96479.00;;;;5024335;28;20232;-80
2023/05/06 04:56:31;;;;;;;3.83;3.53;;;16.80;81.50;17.10;96479.00;;;;5014544;28;20201;-80
2023/05/06 04:58:59;;;;;;;4.73;4.23;;;16.80;81.60;17.10;96478.00;;;;5020360;28;20197;-79
2023/05/06 05:01:26;;;;;;;4.00;3.70;;;16.80;81.60;17.00;96479.00;;;;4986501;28;20213;-80
2023/05/06 05:03:54;;;;;;;3.67;3.47;;;16.80;81.50;17.00;96485.00;;;;5014738;28;20226;-80
2023/05/06 05:06:21;;;;;;;3.60;3.30;;;16.80;81.60;17.00;96497.00;;;;5026302;28;20278;-79
2023/05/06 05:08:49;;;;;;;3.63;3.43;;;16.80;81.70;17.00;96500.00;;;;5019172;28;20200;-80
2023/05/06 05:11:16;;;;;;;3.50;3.20;;;16.80;81.80;17.00;96497.00;;;;5016805;28;20202;-80
2023/05/06 05:13:43;;;;;;;3.57;3.27;;;16.80;81.80;17.00;96496.00;;;;5016229;28;20218;-79
2023/05/06 05:16:11;;;;;;;4.00;3.53;;;16.80;81.90;17.10;96493.00;;;;4998997;28;20631;-79
2023/05/06 05:18:39;;;;;;;3.60;3.30;;;16.80;82.00;17.10;96508.00;;;;5012792;28;20285;-80
2023/05/06 05:21:08;;;;;;;3.30;3.10;;;16.80;82.10;17.20;96511.00;;;;5022975;28;20209;-80
2023/05/06 05:23:35;;;;;;;4.00;3.30;;;16.90;82.40;17.30;96517.00;;;;5020162;28;20245;-80
2023/05/06 05:26:04;;;;;;;3.07;2.87;;;16.90;82.70;17.40;96513.00;;;;5016761;28;20742;-81
2023/05/06 05:28:31;;;;;;;3.50;3.30;;;17.00;83.30;17.40;96521.00;;;;5024959;28;20266;-80
2023/05/06 05:31:03;;;;;;;3.63;3.43;;;17.00;83.20;17.50;96519.00;;;;5021239;28;20836;-81
2023/05/06 05:33:30;;;;;;;3.33;3.13;;;17.00;83.30;17.60;96517.00;;;;5015925;28;20684;-81
2023/05/06 05:35:58;;;;;;;3.53;3.23;;;17.10;83.60;17.70;96537.00;;;;5002626;28;20281;-81
2023/05/06 05:38:27;;;;;;;4.30;3.90;;;17.20;83.70;17.80;96545.00;;;;5019805;28;20282;-81
2023/05/06 05:40:54;;;;;;;3.60;3.17;;;17.20;83.80;17.90;96527.00;;;;4997318;28;20612;-81
2023/05/06 05:43:24;;;;;;;3.83;3.40;;;17.30;83.70;18.00;96528.00;;;;5017240;28;20234;-81
2023/05/06 05:45:53;;;;;;;3.30;3.10;;;17.40;83.60;18.00;96524.00;;;;5018943;28;20285;-80
2023/05/06 05:48:20;;;;;;;3.50;3.30;;;17.50;83.50;18.00;96522.00;;;;5012811;28;20302;-81
2023/05/06 05:50:48;;;;;;;3.60;3.30;;;17.50;83.30;18.10;96520.00;;;;5009683;28;20585;-81
2023/05/06 05:53:15;;;;;;;3.67;3.37;;;17.60;83.40;18.10;96518.00;;;;5011919;28;20218;-81
2023/05/06 05:55:44;;;;;;;3.53;3.33;;;17.60;83.20;18.20;96508.00;;;;5010569;28;20233;-82
2023/05/06 05:58:11;;;;;;;4.10;3.57;;;17.70;83.10;18.20;96513.00;;;;4990824;28;20206;-81
2023/05/06 06:00:40;;;;;;;3.37;3.07;;;17.70;82.90;18.20;96515.00;;;;5011757;28;20225;-81
2023/05/06 06:03:08;;;;;;;3.43;3.13;;;17.70;82.80;18.20;96515.00;;;;4994994;28;20221;-80
2023/05/06 06:05:35;;;;;;;3.47;3.17;;;17.80;83.50;18.30;96522.00;;;;4998534;28;20194;-81
2023/05/06 06:08:02;;;;;;;3.27;3.07;;;17.80;82.70;18.30;96512.00;;;;5018237;28;20197;-81
2023/05/06 06:10:30;;;;;;;3.10;2.90;;;17.80;82.50;18.30;96513.00;;;;5001843;28;20202;-81
2023/05/06 06:12:58;;;;;;;3.53;3.23;;;17.90;82.50;18.30;96523.00;;;;5001168;28;20218;-81
2023/05/06 06:15:26;;;;;;;3.93;3.63;;;17.90;82.60;18.30;96532.00;;;;5018513;28;20204;-81
2023/05/06 06:17:54;;;;;;;4.03;3.63;;;17.90;82.60;18.30;96538.00;;;;5001172;28;20595;-80
2023/05/06 06:20:21;;;;;;;3.90;3.60;;;17.90;82.70;18.40;96538.00;;;;5010392;28;20198;-81
2023/05/06 06:22:49;;;;;;;4.13;3.83;;;18.00;82.90;18.50;96536.00;;;;5014875;28;20778;-82
2023/05/06 06:25:17;;;;;;;3.93;3.63;;;18.00;83.30;18.60;96542.00;;;;5014129;28;20224;-81
2023/05/06 06:27:44;;;;;;;3.80;3.50;;;18.10;83.70;18.60;96550.00;;;;5021686;28;20209;-79
2023/05/06 06:30:13;;;;;;;4.10;3.80;;;18.10;83.60;18.70;96551.00;;;;5029683;28;20212;-79
2023/05/06 06:32:49;;;;;;;4.17;3.43;;;18.20;83.30;18.70;96554.00;;;;5022012;28;20198;-81
2023/05/06 06:35:18;;;;;;;4.73;4.33;;;18.20;82.90;18.80;96548.00;;;;5017705;28;20663;-80
2023/05/06 06:37:46;;;;;;;4.07;3.77;;;18.30;82.90;18.80;96548.00;;;;5026331;28;20193;-79
2023/05/06 06:40:14;;;;;;;4.33;3.57;;;18.30;82.90;18.90;96554.00;;;;5019176;28;20289;-79
2023/05/06 06:42:41;;;;;;;3.90;3.60;;;18.40;82.90;19.00;96554.00;;;;5023814;28;20240;-79
2023/05/06 06:45:10;;;;;;;4.47;3.70;;;18.50;83.00;19.10;96551.00;;;;5016862;28;20592;-79
2023/05/06 06:47:42;;;;;;;3.50;3.20;;;18.50;82.90;19.10;96556.00;;;;5021410;28;20212;-79
2023/05/06 06:50:10;;;;;;;3.83;3.53;;;18.60;82.90;19.20;96559.00;;;;5018718;28;20690;-80
2023/05/06 06:52:37;;;;;;;4.10;3.80;;;18.60;83.10;19.30;96555.00;;;;5021861;28;20705;-80
2023/05/06 06:55:06;;;;;;;3.93;3.63;;;18.70;83.00;19.40;96563.00;;;;5027344;28;20213;-81
2023/05/06 06:57:33;;;;;;;4.10;3.80;;;18.80;82.90;19.40;96560.00;;;;5011469;28;20197;-80
2023/05/06 07:00:01;;;;;;;3.60;3.40;;;18.80;82.80;19.50;96559.00;;;;5019105;28;20198;-80
2023/05/06 07:02:28;;;;;;;3.70;3.50;;;18.90;82.90;19.60;96560.00;;;;5009730;28;20284;-79
2023/05/06 07:04:57;;;;;;;3.63;3.33;;;19.00;83.00;19.70;96558.00;;;;5023946;28;20330;-80
2023/05/06 07:07:25;;;;;;;3.90;3.60;;;19.00;82.60;19.70;96556.00;;;;5020405;28;20663;-79
2023/05/06 07:09:53;;;;;;;3.57;3.37;;;19.10;82.70;19.80;96560.00;;;;5017594;28;20205;-80
2023/05/06 07:12:22;;;;;;;3.80;3.60;;;19.20;83.00;19.90;96562.00;;;;5013752;28;20275;-80
2023/05/06 07:14:50;;;;;;;3.87;3.63;;;19.30;82.80;20.00;96561.00;;;;5040341;28;20208;-80
2023/05/06 07:17:17;;;;;;;4.00;3.60;;;19.30;82.30;20.10;96567.00;;;;5020002;28;20221;-80
2023/05/06 07:19:44;;;;;;;3.63;3.43;;;19.40;82.10;20.10;96564.00;;;;5016194;28;20284;-80
2023/05/06 07:22:13;;;;;;;4.30;3.50;;;19.40;81.70;20.20;96565.00;;;;5024626;28;20225;-80
2023/05/06 07:24:41;;;;;;;4.17;3.87;;;19.50;81.80;20.30;96567.00;;;;5007207;28;20290;-80
2023/05/06 07:27:09;;;;;;;3.83;3.53;;;19.60;81.60;20.30;96568.00;;;;5006072;28;20201;-79
2023/05/06 07:29:36;;;;;;;3.90;3.60;;;19.60;80.90;20.30;96575.00;;;;5016791;28;20197;-80
2023/05/06 07:32:03;;;;;;;3.50;3.27;;;19.70;80.80;20.30;96574.00;;;;5007744;28;20228;-79
2023/05/06 07:34:32;;;;;;;3.77;3.47;;;19.70;80.70;20.30;96576.00;;;;5023217;28;20229;-81
2023/05/06 07:37:00;;;;;;;4.00;3.70;;;19.70;80.50;20.40;96573.00;;;;5003387;28;20264;-80
2023/05/06 07:39:29;;;;;;;3.73;3.40;;;19.70;80.50;20.40;96588.00;;;;5019348;28;20209;-80
2023/05/06 07:41:57;;;;;;;3.97;3.67;;;19.80;80.50;20.50;96576.00;;;;5002630;28;20202;-80
2023/05/06 07:44:24;;;;;;;3.60;3.40;;;19.80;80.60;20.50;96586.00;;;;5008649;28;20225;-79
2023/05/06 07:46:51;;;;;;;4.23;3.93;;;19.90;80.90;20.60;96585.00;;;;5015640;28;20202;-80
2023/05/06 07:49:20;;;;;;;4.00;3.70;;;19.90;80.90;20.70;96591.00;;;;5016072;28;20194;-80
2023/05/06 07:51:49;;;;;;;3.57;3.27;;;20.00;80.90;20.70;96594.00;;;;5033140;28;20193;-80
2023/05/06 07:54:16;;;;;;;3.40;3.20;;;20.10;80.50;20.80;96597.00;;;;5021376;28;20254;-80
2023/05/06 07:56:45;;;;;;;3.70;3.40;;;20.10;80.10;20.80;96602.00;;;;5000112;28;20648;-80
2023/05/06 07:59:12;;;;;;;4.13;3.60;;;20.20;80.00;20.80;96594.00;;;;5003516;28;20677;-81
2023/05/06 08:01:39;;;;;;;3.57;3.27;;;20.20;79.90;20.90;96599.00;;;;5001231;28;20257;-80
2023/05/06 08:04:07;;;;;;;3.47;3.13;;;20.30;80.10;21.00;96608.00;;;;5012263;28;20878;-81
2023/05/06 08:06:34;;;;;;;3.63;3.30;;;20.30;80.00;21.10;96600.00;;;;4992195;28;20198;-80
2023/05/06 08:09:03;;;;;;;3.83;3.50;;;20.40;80.10;21.20;96608.00;;;;5004554;28;20202;-81
2023/05/06 08:11:30;;;;;;;3.40;3.20;;;20.50;80.30;21.30;96602.00;;;;5024169;28;20198;-80
2023/05/06 08:13:59;;;;;;;3.20;3.00;;;20.50;80.20;21.40;96613.00;;;;5018334;28;20226;-80
2023/05/06 08:16:26;;;;;;;3.37;3.10;;;20.60;80.00;21.60;96608.00;;;;5017784;28;20204;-80
2023/05/06 08:18:53;;;;;;;3.47;3.17;;;20.70;80.00;21.70;96606.00;;;;5003324;28;20205;-80
2023/05/06 08:21:21;;;;;;;3.53;3.23;;;20.80;79.30;21.70;96608.00;;;;5019090;28;20287;-80
2023/05/06 08:23:49;;;;;;;3.00;2.80;;;20.90;78.70;21.70;96614.00;;;;5023858;28;20234;-81
2023/05/06 08:26:16;;;;;;;3.40;3.20;;;21.00;78.20;21.80;96602.00;;;;5019403;28;20292;-80
2023/05/06 08:28:44;;;;;;;3.47;3.17;;;21.00;78.20;21.90;96614.00;;;;4984671;28;20197;-81
2023/05/06 08:31:13;;;;;;;3.20;2.87;;;21.10;78.60;22.00;96617.00;;;;4995632;28;20198;-80
2023/05/06 08:33:40;;;;;;;3.30;3.10;;;21.20;78.30;22.10;96620.00;;;;5007076;28;20272;-81
2023/05/06 08:36:10;;;;;;;3.13;2.93;;;21.30;78.40;22.20;96616.00;;;;5014182;28;20201;-81
2023/05/06 08:38:37;;;;;;;3.10;2.80;;;21.30;78.20;22.30;96628.00;;;;5015682;28;20235;-81
2023/05/06 08:41:11;;;;;;;2.87;2.73;;;21.40;77.90;22.40;96622.00;;;;5019937;28;20285;-81
2023/05/06 08:43:41;;;;;;;2.63;2.43;;;21.50;78.10;22.60;96627.00;;;;5021174;28;20312;-81
2023/05/06 08:46:09;;;;;;;2.63;2.43;;;21.60;78.30;22.70;96618.00;;;;5001773;28;20656;-81
2023/05/06 08:48:38;;;;;;;2.53;2.43;;;21.70;77.80;22.90;96623.00;;;;5019810;28;20626;-80
2023/05/06 08:51:06;;;;;;;2.93;2.73;;;21.90;77.20;22.90;96619.00;;;;5017727;28;20702;-80
2023/05/06 08:53:34;;;;;;;4.10;2.77;;;22.00;77.10;23.00;96624.00;;;;5026102;28;20308;-81
2023/05/06 08:56:07;;;;;;;3.30;2.83;;;22.00;75.90;23.00;96628.00;;;;5022675;28;20301;-81
2023/05/06 08:58:37;;;;;;;3.00;2.80;;;22.10;76.10;23.10;96620.00;;;;5027989;28;20198;-81
2023/05/06 09:01:05;;;;;;;2.87;2.67;;;22.20;75.40;23.10;96622.00;;;;5026214;28;20244;-80
2023/05/06 09:03:33;;;;;;;3.10;2.77;;;22.30;75.60;23.10;96623.00;;;;5020528;28;20218;-81
2023/05/06 09:06:02;;;;;;;2.63;2.43;;;22.40;75.70;23.20;96615.00;;;;5034262;28;20288;-81
2023/05/06 09:08:29;;;;;;;2.70;2.50;;;22.40;75.30;23.30;96618.00;;;;5011128;28;20194;-80
2023/05/06 09:10:59;;;;;;;2.70;2.50;;;22.50;75.70;23.40;96623.00;;;;5017772;28;20256;-81
2023/05/06 09:13:26;;;;;;;2.57;2.37;;;22.50;75.40;23.50;96612.00;;;;5015845;28;20385;-81
2023/05/06 09:15:54;;;;;;;2.73;2.40;;;22.60;75.00;23.60;96623.00;;;;5017708;28;20197;-81
2023/05/06 09:18:23;;;;;;;2.77;2.57;;;22.70;74.60;23.70;96620.00;;;;4999599;28;20209;-81
2023/05/06 09:20:50;;;;;;;2.83;2.63;;;22.80;73.90;23.80;96625.00;;;;5015708;28;20201;-81
2023/05/06 09:23:22;;;;;;;2.30;2.20;;;22.80;74.40;24.00;96617.00;;;;5022264;28;20213;-81
2023/05/06 09:25:50;;;;;;;2.80;2.60;;;22.90;74.40;24.20;96623.00;;;;4999850;28;20695;-80
2023/05/06 09:28:20;;;;;;;2.43;2.27;;;23.10;74.80;24.30;96620.00;;;;5012326;28;20201;-80
2023/05/06 09:30:47;;;;;;;2.13;1.93;;;23.20;74.30;24.40;96625.00;;;;5001105;28;20202;-81
2023/05/06 09:33:14;;;;;;;3.23;2.07;;;23.30;72.90;24.40;96614.00;;;;5010685;28;20231;-81
2023/05/06 09:35:44;;;;;;;2.43;2.23;;;23.30;71.70;24.40;96617.00;;;;5015865;28;20291;-81
2023/05/06 09:38:11;;;;;;;2.67;2.00;;;23.40;71.10;24.40;96617.00;;;;5012060;28;20192;-81
2023/05/06 09:40:40;;;;;;;2.10;2.00;;;23.50;70.90;24.50;96607.00;;;;5015444;28;20219;-80
2023/05/06 09:43:08;;;;;;;2.00;1.90;;;23.50;72.20;24.80;96609.00;;;;5031041;28;20279;-80
2023/05/06 09:45:37;;;;;;;2.77;2.17;;;23.70;72.30;25.30;96618.00;;;;5002345;28;20252;-81
2023/05/06 09:48:05;;;;;;;1.73;1.63;;;24.00;73.70;25.80;96618.00;;;;5011591;28;20220;-82
2023/05/06 09:50:33;;;;;;;1.83;1.50;;;24.30;74.50;26.10;96615.00;;;;4992864;28;20275;-82
2023/05/06 09:53:04;;;;;;;1.60;1.50;;;24.60;73.00;26.10;96617.00;;;;5013858;28;20249;-81
2023/05/06 09:55:33;;;;;;;1.80;1.70;;;24.70;71.30;26.00;96613.00;;;;5012707;28;20213;-82
2023/05/06 09:58:03;;;;;;;1.70;1.60;;;24.80;70.00;25.90;96613.00;;;;5023097;28;20294;-81
2023/05/06 10:00:32;;;;;;;1.93;1.53;;;24.90;68.60;25.70;96613.00;;;;5014596;28;20202;-80
2023/05/06 10:03:00;;;;;;;1.10;1.10;;;24.80;67.70;25.60;96606.00;;;;5024672;28;20224;-81
2023/05/06 10:05:31;;;;;;;0.80;0.80;;;24.80;67.10;25.40;96611.00;;;;5030921;28;20313;-82
2023/05/06 10:08:00;;;;;;;0.93;0.90;;;24.70;65.80;25.20;96618.00;;;;5022311;28;20196;-83
2023/05/06 10:10:28;;;;;;;0.90;0.90;;;24.60;65.30;25.00;96622.00;;;;5019796;28;20201;-82
2023/05/06 10:12:56;;;;;;;1.00;0.90;;;24.50;64.70;24.80;96617.00;;;;4979699;28;20213;-82
2023/05/06 10:15:27;;;;;;;1.23;1.00;;;24.40;64.70;24.60;96617.00;;;;4986353;28;20254;-81
2023/05/06 10:17:55;;;;;;;1.20;1.10;;;24.30;64.20;24.50;96625.00;;;;5009073;28;20191;-81
2023/05/06 10:20:26;;;;;;;1.00;1.00;;;24.10;64.40;24.30;96617.00;;;;5023858;28;20739;-82
2023/05/06 10:23:09;;;;;;;1.37;1.27;;;24.00;64.60;24.20;96610.00;;;;5033751;28;20247;-81
2023/05/06 10:25:41;;;;;;;1.23;1.23;;;23.90;64.90;24.30;96607.00;;;;5004698;28;20218;-81
2023/05/06 10:28:11;;;;;;;1.33;1.03;;;23.80;66.60;24.40;96610.00;;;;5027207;28;20199;-81
2023/05/06 10:30:41;;;;;;;2.47;2.23;;;23.80;66.70;24.50;96604.00;;;;4989649;28;20205;-81
2023/05/06 10:33:11;;;;;;;1.40;1.30;;;23.80;66.70;24.70;96603.00;;;;5013478;28;20217;-81
2023/05/06 10:35:49;;;;;;;1.13;1.03;;;24.00;66.60;24.90;96597.00;;;;5018441;28;20200;-81
2023/05/06 10:38:24;;;;;;;1.33;1.07;;;24.10;66.80;25.00;96596.00;;;;5031367;28;20201;-82
2023/05/06 10:40:53;;;;;;;1.63;1.37;;;24.20;67.20;25.10;96592.00;;;;5017463;28;20199;-82
2023/05/06 10:43:25;;;;;;;1.73;1.07;;;24.30;66.70;25.10;96597.00;;;;5027634;28;20248;-82
2023/05/06 10:46:16;;;;;;;0.90;0.80;;;24.40;65.40;25.10;96604.00;;;;5016369;28;20704;-82
2023/05/06 10:49:18;;;;;;;0.73;0.63;;;24.50;64.10;25.00;96598.00;;;;5020145;28;20215;-82
2023/05/06 10:51:48;;;;;;;1.00;0.90;;;24.50;64.40;24.90;96590.00;;;;5018826;28;20620;-82
2023/05/06 10:54:25;;;;;;;0.93;0.70;;;24.40;63.80;24.80;96590.00;;;;5010040;28;20222;-81
2023/05/06 10:57:10;;;;;;;0.90;0.90;;;24.40;62.90;24.70;96578.00;;;;5038974;28;20195;-82
2023/05/06 10:59:46;;;;;;;1.30;0.93;;;24.30;63.00;24.60;96577.00;;;;5020755;28;20283;-82
2023/05/06 11:02:21;;;;;;;0.90;0.90;;;24.20;63.40;24.60;96575.00;;;;5036436;28;20585;-82